NCAR-RAP Real-Time Weather Data

Output produced by METARs form (12 August 2020  18:46 UTC)
found at http://weather.rap.ucar.edu/surface/
 
KMEM 121841Z 25003KT 10SM SCT029 BKN100 BKN160 BKN250 30/23 A3001 RMK AO2 T03000228
KMEM 121754Z VRB03KT 10SM FEW060 BKN160 BKN250 30/23 A3003 RMK AO2 SLP164 T03000228 10306 20244 58004
KMEM 121654Z 20005KT 10SM FEW065 BKN150 BKN250 29/22 A3004 RMK AO2 SLP168 T02890222
KMEM 121554Z 17006KT 10SM SCT070 BKN140 OVC250 27/23 A3004 RMK AO2 SLP170 T02670228
KMEM 121454Z VRB04KT 10SM SCT085 BKN130 OVC250 26/22 A3004 RMK AO2 SLP168 T02610222 51007
KMEM 121354Z 15005KT 10SM SCT085 BKN120 OVC250 25/22 A3003 RMK AO2 SLP165 T02500222
KMEM 121254Z 15004KT 10SM BKN090 BKN110 BKN250 24/22 A3004 RMK AO2 SLP167 T02440222
KMEM 121154Z 10005KT 10SM FEW060 FEW150 SCT250 24/22 A3002 RMK AO2 SLP161 70007 T02440222 10261 20239 53013
KMEM 121054Z 13007KT 10SM FEW016 SCT060 SCT160 24/22 A3000 RMK AO2 SLP153 T02440222
KMEM 121006Z 09005KT 10SM FEW016 BKN055 BKN250 25/23 A2999 RMK AO2 T02500228
KMEM 120954Z VRB03KT 10SM FEW010 BKN016 BKN055 OVC160 25/23 A2999 RMK AO2 SLP151 T02500233
KMEM 120945Z VRB04KT 10SM SCT010 BKN016 BKN055 OVC160 25/23 A2999 RMK AO2 T02500233
KMEM 120854Z 00000KT 10SM FEW008 FEW160 SCT250 24/23 A2998 RMK AO2 SLP148 T02390228 58003
KMEM 120845Z 00000KT 10SM FEW008 FEW160 SCT250 24/23 A2998 RMK AO2 T02390228
KMEM 120754Z 30004KT 10SM FEW012 BKN150 24/23 A2999 RMK AO2 SLP150 T02440228
KMEM 120654Z 36003KT 10SM FEW010 BKN160 24/23 A2999 RMK AO2 SLP149 T02390228
KMEM 120554Z 00000KT 10SM OVC140 24/23 A2999 RMK AO2 SLP150 60007 T02440228 10261 20239 403610239 50003
KMEM 120454Z 12003KT 10SM FEW090 BKN130 OVC160 24/23 A3000 RMK AO2 SLP153 T02440228
KMEM 120354Z 23004KT 10SM FEW040 BKN130 BKN190 OVC250 24/23 A3001 RMK AO2 SLP157 T02390228
KMEM 120254Z 09006KT 10SM FEW140 BKN190 OVC250 25/23 A2998 RMK AO2 SLP148 60007 T02500233 58002
KMEM 120154Z 20005KT 10SM FEW090 SCT110 BKN130 OVC210 24/22 A3001 RMK AO2 RAE38 SLP158 P0002 T02390222
KMEM 120054Z 20004KT 10SM -RA SCT041 BKN110 OVC140 24/23 A3000 RMK AO2 LTG DSNT E TSE41 SLP156 P0005 T02440233
KMEM 120041Z 18008KT 10SM -RA FEW050 BKN110 OVC140 25/23 A3000 RMK AO2 LTG DSNT E AND SE TSE41 P0004 T02500228
KMEM 112354Z 27011G18KT 10SM -TSRA FEW027CB SCT047 BKN170 OVC240 26/23 A2999 RMK AO2 LTG DSNT ALQDS RAB19E31B50 SLP150 OCNL LTGICCG SW-NW TS SW-NW STNRY CB DSNT SE P0000 60000 T02610228 10361 20261 53013
KMEM 112254Z 03006KT 10SM TS FEW027CB SCT085 BKN150 BKN250 29/20 A2996 RMK AO2 LTG DSNT SE-W TSB37 SLP142 OCNL LTGICCG SW-W TS SW-W MOV NE CB DSNT E-S T02890200
KMEM 112237Z VRB06KT 10SM TS FEW031CB SCT050 BKN085 BKN250 29/19 A2996 RMK AO2 LTG DSNT S-W TSB37 OCNL LTGICCG SW TS SW MOV NE T02940194
KMEM 112154Z 06016G25KT 10SM VCTS FEW035 SCT046 BKN065 BKN150 BKN250 29/21 A2997 RMK AO2 LTG DSNT ALQDS RAB09E23 SLP145 CB DSNT NE-E AND SW MOV NE P0000 T02940206
KMEM 112109Z 34010KT 10SM VCTS -RA FEW039 FEW050 SCT065 BKN150 BKN250 30/21 A2995 RMK AO2 LTG DSNT NE AND E AND SW RAB09 CB DSNT NE-E P0000 T03000211
KMEM 112054Z 33015G21KT 10SM VCTS BKN039 BKN050CB BKN250 31/21 A2995 RMK AO2 WSHFT 2029 LTG DSNT NW-E SLP136 CB OHD T03110211 55008
KMEM 112049Z 34014KT 10SM VCTS BKN039 BKN050CB BKN250 31/22 A2995 RMK AO2 WSHFT 2029 LTG DSNT NW-E CB OHD
KMEM 112036Z 33016G21KT 10SM VCTS BKN039 BKN050CB BKN250 34/23 A2995 RMK AO2 LTG DSNT ALQDS CB NW T03440228
KMEM 111954Z 24007KT 10SM BKN039 BKN047CB BKN250 36/22 A2995 RMK AO2 SLP135 CB NW T03560217
KMEM 111854Z VRB06KT 10SM BKN039 BKN250 36/21 A2998 RMK AO2 SLP145 T03560211
KMEM 111754Z 23009G15KT 190V250 10SM BKN044 35/22 A3000 RMK AO2 SLP152 T03500222 10350 20256 58013
KMEM 111654Z 23009KT 10SM SCT044 34/23 A3001 RMK AO2 SLP157 T03390228
KMEM 111554Z VRB05KT 10SM SCT044 33/23 A3003 RMK AO2 SLP163 T03280233
KMEM 111454Z 21007KT 10SM BKN043 31/23 A3003 RMK AO2 SLP165 T03060233 51011
KMEM 111354Z 21011G17KT 10SM FEW250 29/23 A3002 RMK AO2 SLP162 T02890228
KMEM 111254Z 17010KT 10SM FEW150 FEW250 27/22 A3001 RMK AO2 SLP157 CB DSNT SE MOV E T02670217
KMEM 111154Z 15007KT 10SM FEW040 FEW150 26/20 A3000 RMK AO2 LTG DSNT S SLP154 CB DSNT S MOV E 60000 T02560200 10289 20250 55000
KMEM 111054Z 13005KT 10SM FEW038 SCT250 26/20 A3000 RMK AO2 SLP154 T02560200
KMEM 110954Z 11010G14KT 10SM BKN046 BKN060 26/21 A3000 RMK AO2 RAE05 SLP153 P0000 T02610206
KMEM 110854Z 09012KT 10SM -RA SCT040 BKN050 BKN085 26/21 A3000 RMK AO2 RAB52 SLP154 P0000 60000 T02610206 50008
KMEM 110754Z 06011KT 10SM BKN044 OVC065 27/21 A3000 RMK AO2 SLP155 T02720211
KMEM 110654Z 20006KT 10SM FEW100 28/23 A2998 RMK AO2 SLP145 T02780228
KMEM 110554Z 21005KT 10SM FEW200 28/23 A2998 RMK AO2 SLP146 T02780233 10328 20278 403610261 51001
KMEM 110454Z 20005KT 10SM CLR 28/23 A2997 RMK AO2 SLP144 T02780233
KMEM 110354Z 19005KT 10SM CLR 28/23 A2998 RMK AO2 SLP148 T02830228
KMEM 110254Z 20004KT 10SM CLR 29/22 A2997 RMK AO2 SLP144 T02940222 53009
KMEM 110154Z 20005KT 10SM FEW250 30/22 A2995 RMK AO2 SLP138 T03000222
KMEM 110054Z 23006KT 10SM FEW250 32/22 A2996 RMK AO2 SLP140 T03170222
KMEM 102354Z 23010KT 10SM CLR 33/22 A2995 RMK AO2 SLP135 T03280222 10361 20328 56017
KMEM 102254Z 25009G20KT 10SM FEW055 34/22 A2995 RMK AO2 SLP137 T03440217
KMEM 102154Z 24010KT 10SM FEW050 FEW070 35/22 A2997 RMK AO2 SLP144 T03500217
KMEM 102054Z 22009KT 10SM FEW050 SCT070 36/22 A3000 RMK AO2 SLP153 T03610222 58021
KMEM 101954Z 24005G15KT 10SM SCT050 SCT070 36/22 A3002 RMK AO2 SLP159 T03560222
KMEM 101854Z 27010G17KT 10SM FEW048 SCT060 35/22 A3004 RMK AO2 SLP168 T03500222